sensor_id;sensor_type;location;lat;lon;timestamp;temperature;humidity
9329;DHT22;4703;48.748;19.142;2023-05-07T00:02:00;11.80;99.90
9329;DHT22;4703;48.748;19.142;2023-05-07T00:04:27;11.80;99.90
9329;DHT22;4703;48.748;19.142;2023-05-07T00:06:55;11.80;99.90
9329;DHT22;4703;48.748;19.142;2023-05-07T00:09:22;11.70;99.90
9329;DHT22;4703;48.748;19.142;2023-05-07T00:11:49;12.40;99.90
9329;DHT22;4703;48.748;19.142;2023-05-07T00:14:16;13.00;99.90
9329;DHT22;4703;48.748;19.142;2023-05-07T00:16:43;12.20;99.90
9329;DHT22;4703;48.748;19.142;2023-05-07T00:19:10;13.70;99.90
9329;DHT22;4703;48.748;19.142;2023-05-07T00:21:37;13.80;99.90
9329;DHT22;4703;48.748;19.142;2023-05-07T00:24:04;11.60;99.90
9329;DHT22;4703;48.748;19.142;2023-05-07T00:26:31;11.60;99.90
9329;DHT22;4703;48.748;19.142;2023-05-07T00:28:58;12.30;99.90
9329;DHT22;4703;48.748;19.142;2023-05-07T00:31:25;11.90;99.90
9329;DHT22;4703;48.748;19.142;2023-05-07T00:33:52;10.70;99.90
9329;DHT22;4703;48.748;19.142;2023-05-07T00:36:19;13.40;99.90
9329;DHT22;4703;48.748;19.142;2023-05-07T00:38:46;12.40;99.90
9329;DHT22;4703;48.748;19.142;2023-05-07T00:41:12;13.30;99.90
9329;DHT22;4703;48.748;19.142;2023-05-07T00:43:39;13.20;99.90
9329;DHT22;4703;48.748;19.142;2023-05-07T00:46:07;13.60;99.90
9329;DHT22;4703;48.748;19.142;2023-05-07T00:48:34;11.70;99.90
9329;DHT22;4703;48.748;19.142;2023-05-07T00:51:01;12.70;99.90
9329;DHT22;4703;48.748;19.142;2023-05-07T00:53:28;13.90;99.90
9329;DHT22;4703;48.748;19.142;2023-05-07T00:55:55;11.70;99.90
9329;DHT22;4703;48.748;19.142;2023-05-07T00:58:23;13.90;99.90
9329;DHT22;4703;48.748;19.142;2023-05-07T01:00:50;12.30;99.90
9329;DHT22;4703;48.748;19.142;2023-05-07T01:03:17;12.50;99.90
9329;DHT22;4703;48.748;19.142;2023-05-07T01:05:45;11.70;99.90
9329;DHT22;4703;48.748;19.142;2023-05-07T01:08:14;13.40;99.90
9329;DHT22;4703;48.748;19.142;2023-05-07T01:10:42;13.80;99.90
9329;DHT22;4703;48.748;19.142;2023-05-07T01:13:11;13.40;99.90
9329;DHT22;4703;48.748;19.142;2023-05-07T01:15:39;13.40;99.90
9329;DHT22;4703;48.748;19.142;2023-05-07T01:18:07;12.30;99.90
9329;DHT22;4703;48.748;19.142;2023-05-07T01:20:34;13.20;99.90
9329;DHT22;4703;48.748;19.142;2023-05-07T01:23:03;11.80;99.90
9329;DHT22;4703;48.748;19.142;2023-05-07T01:25:30;12.00;99.90
9329;DHT22;4703;48.748;19.142;2023-05-07T01:27:57;11.80;99.90
9329;DHT22;4703;48.748;19.142;2023-05-07T01:30:27;12.80;99.90
9329;DHT22;4703;48.748;19.142;2023-05-07T01:33:09;11.80;99.90
9329;DHT22;4703;48.748;19.142;2023-05-07T01:35:41;12.00;99.90
9329;DHT22;4703;48.748;19.142;2023-05-07T01:38:10;12.70;99.90
9329;DHT22;4703;48.748;19.142;2023-05-07T01:40:38;13.60;99.90
9329;DHT22;4703;48.748;19.142;2023-05-07T01:43:05;11.90;99.90
9329;DHT22;4703;48.748;19.142;2023-05-07T01:45:34;11.90;99.90
9329;DHT22;4703;48.748;19.142;2023-05-07T01:48:02;13.20;99.90
9329;DHT22;4703;48.748;19.142;2023-05-07T01:50:31;11.90;99.90
9329;DHT22;4703;48.748;19.142;2023-05-07T01:52:58;11.90;99.90
9329;DHT22;4703;48.748;19.142;2023-05-07T01:55:25;12.70;99.90
9329;DHT22;4703;48.748;19.142;2023-05-07T01:57:52;11.90;99.90
9329;DHT22;4703;48.748;19.142;2023-05-07T02:00:19;11.90;99.90
9329;DHT22;4703;48.748;19.142;2023-05-07T02:02:46;11.80;99.90
9329;DHT22;4703;48.748;19.142;2023-05-07T02:05:13;12.40;99.90
9329;DHT22;4703;48.748;19.142;2023-05-07T02:07:40;13.40;99.90
9329;DHT22;4703;48.748;19.142;2023-05-07T02:10:08;13.60;99.90
9329;DHT22;4703;48.748;19.142;2023-05-07T02:12:35;11.80;99.90
9329;DHT22;4703;48.748;19.142;2023-05-07T02:15:02;13.70;99.90
9329;DHT22;4703;48.748;19.142;2023-05-07T02:17:30;11.70;99.90
9329;DHT22;4703;48.748;19.142;2023-05-07T02:19:59;12.00;99.90
9329;DHT22;4703;48.748;19.142;2023-05-07T02:22:26;12.90;99.90
9329;DHT22;4703;48.748;19.142;2023-05-07T02:24:53;13.50;99.90
9329;DHT22;4703;48.748;19.142;2023-05-07T02:27:20;11.80;99.90
9329;DHT22;4703;48.748;19.142;2023-05-07T02:29:47;12.20;99.90
9329;DHT22;4703;48.748;19.142;2023-05-07T02:32:14;13.10;99.90
9329;DHT22;4703;48.748;19.142;2023-05-07T02:34:41;13.60;99.90
9329;DHT22;4703;48.748;19.142;2023-05-07T02:37:08;12.10;99.90
9329;DHT22;4703;48.748;19.142;2023-05-07T02:39:35;11.60;99.90
9329;DHT22;4703;48.748;19.142;2023-05-07T02:42:02;11.60;99.90
9329;DHT22;4703;48.748;19.142;2023-05-07T02:44:28;11.60;99.90
9329;DHT22;4703;48.748;19.142;2023-05-07T02:46:57;13.50;99.90
9329;DHT22;4703;48.748;19.142;2023-05-07T02:49:24;12.50;99.90
9329;DHT22;4703;48.748;19.142;2023-05-07T02:51:51;12.60;99.90
9329;DHT22;4703;48.748;19.142;2023-05-07T02:54:18;11.70;99.90
9329;DHT22;4703;48.748;19.142;2023-05-07T02:56:45;12.60;99.90
9329;DHT22;4703;48.748;19.142;2023-05-07T02:59:12;11.40;99.90
9329;DHT22;4703;48.748;19.142;2023-05-07T03:01:39;13.20;99.90
9329;DHT22;4703;48.748;19.142;2023-05-07T03:04:06;12.70;99.90
9329;DHT22;4703;48.748;19.142;2023-05-07T03:06:33;12.80;99.90
9329;DHT22;4703;48.748;19.142;2023-05-07T03:09:00;11.40;99.90
9329;DHT22;4703;48.748;19.142;2023-05-07T03:11:27;12.30;99.90
9329;DHT22;4703;48.748;19.142;2023-05-07T03:13:54;11.30;99.90
9329;DHT22;4703;48.748;19.142;2023-05-07T03:16:21;13.20;99.90
9329;DHT22;4703;48.748;19.142;2023-05-07T03:18:48;12.50;99.90
9329;DHT22;4703;48.748;19.142;2023-05-07T03:21:15;12.10;99.90
9329;DHT22;4703;48.748;19.142;2023-05-07T03:23:42;12.60;99.90
9329;DHT22;4703;48.748;19.142;2023-05-07T03:26:09;13.30;99.90
9329;DHT22;4703;48.748;19.142;2023-05-07T03:28:36;12.80;99.90
9329;DHT22;4703;48.748;19.142;2023-05-07T03:31:03;12.50;99.90
9329;DHT22;4703;48.748;19.142;2023-05-07T03:33:34;11.30;99.90
9329;DHT22;4703;48.748;19.142;2023-05-07T03:36:01;11.30;99.90
9329;DHT22;4703;48.748;19.142;2023-05-07T03:38:28;11.30;99.90
9329;DHT22;4703;48.748;19.142;2023-05-07T03:40:56;13.10;99.90
9329;DHT22;4703;48.748;19.142;2023-05-07T03:43:22;13.10;99.90
9329;DHT22;4703;48.748;19.142;2023-05-07T03:45:49;11.30;99.90
9329;DHT22;4703;48.748;19.142;2023-05-07T03:48:16;12.70;99.90
9329;DHT22;4703;48.748;19.142;2023-05-07T03:50:43;11.80;99.90
9329;DHT22;4703;48.748;19.142;2023-05-07T03:53:10;13.10;99.90
9329;DHT22;4703;48.748;19.142;2023-05-07T03:55:37;13.30;99.90
9329;DHT22;4703;48.748;19.142;2023-05-07T03:58:04;12.30;99.90
9329;DHT22;4703;48.748;19.142;2023-05-07T04:00:31;11.90;99.90
9329;DHT22;4703;48.748;19.142;2023-05-07T04:03:04;11.30;99.90
9329;DHT22;4703;48.748;19.142;2023-05-07T04:05:31;14.00;99.90
9329;DHT22;4703;48.748;19.142;2023-05-07T04:07:59;13.30;99.90
9329;DHT22;4703;48.748;19.142;2023-05-07T04:10:26;12.70;99.90
9329;DHT22;4703;48.748;19.142;2023-05-07T04:12:54;12.90;99.90
9329;DHT22;4703;48.748;19.142;2023-05-07T04:15:21;11.30;99.90
9329;DHT22;4703;48.748;19.142;2023-05-07T04:17:49;13.10;99.90
9329;DHT22;4703;48.748;19.142;2023-05-07T04:20:17;11.40;99.90
9329;DHT22;4703;48.748;19.142;2023-05-07T04:22:44;13.30;99.90
9329;DHT22;4703;48.748;19.142;2023-05-07T04:25:11;11.40;99.90
9329;DHT22;4703;48.748;19.142;2023-05-07T04:27:37;12.10;99.90
9329;DHT22;4703;48.748;19.142;2023-05-07T04:30:05;13.20;99.90
9329;DHT22;4703;48.748;19.142;2023-05-07T04:32:33;11.50;99.90
9329;DHT22;4703;48.748;19.142;2023-05-07T04:35:00;13.80;99.90
9329;DHT22;4703;48.748;19.142;2023-05-07T04:37:27;11.50;99.90
9329;DHT22;4703;48.748;19.142;2023-05-07T04:39:53;12.30;99.90
9329;DHT22;4703;48.748;19.142;2023-05-07T04:42:20;11.50;99.90
9329;DHT22;4703;48.748;19.142;2023-05-07T04:44:47;11.50;99.90
9329;DHT22;4703;48.748;19.142;2023-05-07T04:47:19;11.70;99.90
9329;DHT22;4703;48.748;19.142;2023-05-07T04:49:46;11.80;99.90
9329;DHT22;4703;48.748;19.142;2023-05-07T04:52:13;12.40;99.90
9329;DHT22;4703;48.748;19.142;2023-05-07T04:54:40;13.00;99.90
9329;DHT22;4703;48.748;19.142;2023-05-07T04:57:07;13.70;99.90
9329;DHT22;4703;48.748;19.142;2023-05-07T04:59:34;11.50;99.90
9329;DHT22;4703;48.748;19.142;2023-05-07T05:02:01;11.50;99.90
9329;DHT22;4703;48.748;19.142;2023-05-07T05:04:28;11.50;99.90
9329;DHT22;4703;48.748;19.142;2023-05-07T05:06:55;11.60;99.90
9329;DHT22;4703;48.748;19.142;2023-05-07T05:09:22;11.80;99.90
9329;DHT22;4703;48.748;19.142;2023-05-07T05:11:49;12.30;99.90
9329;DHT22;4703;48.748;19.142;2023-05-07T05:14:16;13.80;99.90
9329;DHT22;4703;48.748;19.142;2023-05-07T05:16:43;13.70;99.90
9329;DHT22;4703;48.748;19.142;2023-05-07T05:19:10;12.40;99.90
9329;DHT22;4703;48.748;19.142;2023-05-07T05:21:36;13.50;99.90
9329;DHT22;4703;48.748;19.142;2023-05-07T05:24:04;13.90;99.90
9329;DHT22;4703;48.748;19.142;2023-05-07T05:26:31;11.80;99.90
9329;DHT22;4703;48.748;19.142;2023-05-07T05:28:57;12.10;99.90
9329;DHT22;4703;48.748;19.142;2023-05-07T05:31:24;11.80;99.90
9329;DHT22;4703;48.748;19.142;2023-05-07T05:33:51;11.90;99.90
9329;DHT22;4703;48.748;19.142;2023-05-07T05:36:18;13.40;99.90
9329;DHT22;4703;48.748;19.142;2023-05-07T05:38:45;12.70;99.90
9329;DHT22;4703;48.748;19.142;2023-05-07T05:41:12;11.90;99.90
9329;DHT22;4703;48.748;19.142;2023-05-07T05:43:39;13.70;99.90
9329;DHT22;4703;48.748;19.142;2023-05-07T05:46:06;14.10;99.90
9329;DHT22;4703;48.748;19.142;2023-05-07T05:48:35;13.00;99.90
9329;DHT22;4703;48.748;19.142;2023-05-07T05:51:02;12.00;99.90
9329;DHT22;4703;48.748;19.142;2023-05-07T05:53:29;12.10;99.90
9329;DHT22;4703;48.748;19.142;2023-05-07T05:55:56;13.70;99.90
9329;DHT22;4703;48.748;19.142;2023-05-07T05:58:22;13.70;99.90
9329;DHT22;4703;48.748;19.142;2023-05-07T06:00:50;13.90;99.90
9329;DHT22;4703;48.748;19.142;2023-05-07T06:03:18;13.50;99.90
9329;DHT22;4703;48.748;19.142;2023-05-07T06:05:46;13.40;99.90
9329;DHT22;4703;48.748;19.142;2023-05-07T06:08:13;13.20;99.90
9329;DHT22;4703;48.748;19.142;2023-05-07T06:10:40;12.60;99.90
9329;DHT22;4703;48.748;19.142;2023-05-07T06:13:07;14.40;99.90
9329;DHT22;4703;48.748;19.142;2023-05-07T06:15:34;13.90;99.90
9329;DHT22;4703;48.748;19.142;2023-05-07T06:18:01;15.40;99.90
9329;DHT22;4703;48.748;19.142;2023-05-07T06:20:28;13.70;99.90
9329;DHT22;4703;48.748;19.142;2023-05-07T06:22:55;13.70;99.90
9329;DHT22;4703;48.748;19.142;2023-05-07T06:25:22;14.60;99.90
9329;DHT22;4703;48.748;19.142;2023-05-07T06:27:49;14.80;99.90
9329;DHT22;4703;48.748;19.142;2023-05-07T06:30:16;14.30;99.90
9329;DHT22;4703;48.748;19.142;2023-05-07T06:32:43;14.10;99.90
9329;DHT22;4703;48.748;19.142;2023-05-07T06:35:10;14.00;99.90
9329;DHT22;4703;48.748;19.142;2023-05-07T06:37:37;13.30;99.90
9329;DHT22;4703;48.748;19.142;2023-05-07T06:40:06;13.40;99.90
9329;DHT22;4703;48.748;19.142;2023-05-07T06:42:35;13.40;99.90
9329;DHT22;4703;48.748;19.142;2023-05-07T06:45:03;14.50;99.90
9329;DHT22;4703;48.748;19.142;2023-05-07T06:47:30;13.60;99.90
9329;DHT22;4703;48.748;19.142;2023-05-07T06:49:57;13.70;99.90
9329;DHT22;4703;48.748;19.142;2023-05-07T06:52:24;14.30;99.90
9329;DHT22;4703;48.748;19.142;2023-05-07T06:54:51;13.80;99.90
9329;DHT22;4703;48.748;19.142;2023-05-07T06:57:18;15.00;99.90
9329;DHT22;4703;48.748;19.142;2023-05-07T06:59:45;14.00;99.90
9329;DHT22;4703;48.748;19.142;2023-05-07T07:02:12;13.90;99.90
9329;DHT22;4703;48.748;19.142;2023-05-07T07:04:40;14.20;99.90
9329;DHT22;4703;48.748;19.142;2023-05-07T07:07:08;13.90;99.90
9329;DHT22;4703;48.748;19.142;2023-05-07T07:09:35;14.20;99.90
9329;DHT22;4703;48.748;19.142;2023-05-07T07:12:02;13.80;99.90
9329;DHT22;4703;48.748;19.142;2023-05-07T07:14:29;13.80;99.90
9329;DHT22;4703;48.748;19.142;2023-05-07T07:16:56;13.80;99.90
9329;DHT22;4703;48.748;19.142;2023-05-07T07:19:23;13.80;99.90
9329;DHT22;4703;48.748;19.142;2023-05-07T07:21:50;14.80;99.90
9329;DHT22;4703;48.748;19.142;2023-05-07T07:24:17;13.90;99.90
9329;DHT22;4703;48.748;19.142;2023-05-07T07:26:48;14.10;99.90
9329;DHT22;4703;48.748;19.142;2023-05-07T07:29:15;14.60;99.90
9329;DHT22;4703;48.748;19.142;2023-05-07T07:31:42;14.70;99.90
9329;DHT22;4703;48.748;19.142;2023-05-07T07:34:09;14.50;99.90
9329;DHT22;4703;48.748;19.142;2023-05-07T07:36:36;14.50;99.90
9329;DHT22;4703;48.748;19.142;2023-05-07T07:39:12;14.00;99.90
9329;DHT22;4703;48.748;19.142;2023-05-07T07:41:39;14.00;99.90
9329;DHT22;4703;48.748;19.142;2023-05-07T07:44:06;14.60;99.90
9329;DHT22;4703;48.748;19.142;2023-05-07T07:46:35;14.70;99.90
9329;DHT22;4703;48.748;19.142;2023-05-07T07:49:02;14.20;99.90
9329;DHT22;4703;48.748;19.142;2023-05-07T07:51:29;14.60;99.90
9329;DHT22;4703;48.748;19.142;2023-05-07T07:53:57;14.30;99.90
9329;DHT22;4703;48.748;19.142;2023-05-07T07:56:25;14.50;99.90
9329;DHT22;4703;48.748;19.142;2023-05-07T07:58:52;14.50;99.90
9329;DHT22;4703;48.748;19.142;2023-05-07T08:01:19;14.60;99.90
9329;DHT22;4703;48.748;19.142;2023-05-07T08:03:46;14.70;99.90
9329;DHT22;4703;48.748;19.142;2023-05-07T08:06:13;14.80;99.90
9329;DHT22;4703;48.748;19.142;2023-05-07T08:08:40;14.90;99.90
9329;DHT22;4703;48.748;19.142;2023-05-07T08:11:07;14.90;99.90
9329;DHT22;4703;48.748;19.142;2023-05-07T08:13:34;15.00;99.90
9329;DHT22;4703;48.748;19.142;2023-05-07T08:16:02;15.30;99.90
9329;DHT22;4703;48.748;19.142;2023-05-07T08:18:29;15.10;99.90
9329;DHT22;4703;48.748;19.142;2023-05-07T08:20:56;15.20;99.90
9329;DHT22;4703;48.748;19.142;2023-05-07T08:23:23;15.30;99.90
9329;DHT22;4703;48.748;19.142;2023-05-07T08:25:50;16.40;99.90
9329;DHT22;4703;48.748;19.142;2023-05-07T08:28:17;15.40;99.90
9329;DHT22;4703;48.748;19.142;2023-05-07T08:30:45;15.50;99.90
9329;DHT22;4703;48.748;19.142;2023-05-07T08:33:13;16.40;99.90
9329;DHT22;4703;48.748;19.142;2023-05-07T08:35:40;15.70;99.90
9329;DHT22;4703;48.748;19.142;2023-05-07T08:38:07;15.70;99.90
9329;DHT22;4703;48.748;19.142;2023-05-07T08:40:38;15.80;99.90
9329;DHT22;4703;48.748;19.142;2023-05-07T08:43:07;15.80;99.90
9329;DHT22;4703;48.748;19.142;2023-05-07T08:45:35;16.10;99.90
9329;DHT22;4703;48.748;19.142;2023-05-07T08:48:04;16.40;99.90
9329;DHT22;4703;48.748;19.142;2023-05-07T08:50:35;16.10;99.90
9329;DHT22;4703;48.748;19.142;2023-05-07T08:53:03;16.20;99.90
9329;DHT22;4703;48.748;19.142;2023-05-07T08:55:31;16.20;99.90
9329;DHT22;4703;48.748;19.142;2023-05-07T08:58:00;16.30;99.90
9329;DHT22;4703;48.748;19.142;2023-05-07T09:00:27;16.40;99.90
9329;DHT22;4703;48.748;19.142;2023-05-07T09:02:54;16.50;99.90
9329;DHT22;4703;48.748;19.142;2023-05-07T09:05:21;16.60;99.90
9329;DHT22;4703;48.748;19.142;2023-05-07T09:07:48;16.90;99.90
9329;DHT22;4703;48.748;19.142;2023-05-07T09:10:21;16.80;99.90
9329;DHT22;4703;48.748;19.142;2023-05-07T09:12:48;16.90;99.40
9329;DHT22;4703;48.748;19.142;2023-05-07T09:15:15;17.00;99.60
9329;DHT22;4703;48.748;19.142;2023-05-07T09:17:43;17.10;99.70
9329;DHT22;4703;48.748;19.142;2023-05-07T09:20:10;17.40;94.10
9329;DHT22;4703;48.748;19.142;2023-05-07T09:22:37;17.30;95.70
9329;DHT22;4703;48.748;19.142;2023-05-07T09:25:06;17.30;91.20
9329;DHT22;4703;48.748;19.142;2023-05-07T09:27:35;17.40;81.50
9329;DHT22;4703;48.748;19.142;2023-05-07T09:30:06;17.40;76.60
9329;DHT22;4703;48.748;19.142;2023-05-07T09:32:37;17.50;76.30
9329;DHT22;4703;48.748;19.142;2023-05-07T09:35:14;17.50;73.40
9329;DHT22;4703;48.748;19.142;2023-05-07T09:37:43;17.70;74.80
9329;DHT22;4703;48.748;19.142;2023-05-07T09:40:27;17.60;77.10
9329;DHT22;4703;48.748;19.142;2023-05-07T09:42:56;17.80;76.10
9329;DHT22;4703;48.748;19.142;2023-05-07T09:45:36;17.90;78.10
9329;DHT22;4703;48.748;19.142;2023-05-07T09:48:05;18.10;73.10
9329;DHT22;4703;48.748;19.142;2023-05-07T09:50:48;18.20;72.50
9329;DHT22;4703;48.748;19.142;2023-05-07T09:53:17;18.30;71.20
9329;DHT22;4703;48.748;19.142;2023-05-07T09:55:45;18.40;70.20
9329;DHT22;4703;48.748;19.142;2023-05-07T09:58:12;18.50;69.20
9329;DHT22;4703;48.748;19.142;2023-05-07T10:00:41;18.50;66.80
9329;DHT22;4703;48.748;19.142;2023-05-07T10:03:09;18.50;68.40
9329;DHT22;4703;48.748;19.142;2023-05-07T10:05:37;18.60;70.40
9329;DHT22;4703;48.748;19.142;2023-05-07T10:08:05;19.00;71.90
9329;DHT22;4703;48.748;19.142;2023-05-07T10:10:33;19.20;69.00
9329;DHT22;4703;48.748;19.142;2023-05-07T10:13:02;19.40;69.00
9329;DHT22;4703;48.748;19.142;2023-05-07T10:15:32;19.60;69.30
9329;DHT22;4703;48.748;19.142;2023-05-07T10:18:03;19.90;68.50
9329;DHT22;4703;48.748;19.142;2023-05-07T10:20:31;20.10;61.80
9329;DHT22;4703;48.748;19.142;2023-05-07T10:23:01;20.20;62.30
9329;DHT22;4703;48.748;19.142;2023-05-07T10:25:31;20.30;63.60
9329;DHT22;4703;48.748;19.142;2023-05-07T10:28:06;20.40;59.70
9329;DHT22;4703;48.748;19.142;2023-05-07T10:33:30;20.70;62.60
9329;DHT22;4703;48.748;19.142;2023-05-07T10:36:00;20.90;61.60
9329;DHT22;4703;48.748;19.142;2023-05-07T10:38:29;21.10;61.50
9329;DHT22;4703;48.748;19.142;2023-05-07T10:40:56;21.40;60.80
9329;DHT22;4703;48.748;19.142;2023-05-07T10:43:24;21.70;60.10
9329;DHT22;4703;48.748;19.142;2023-05-07T10:46:18;21.90;61.10
9329;DHT22;4703;48.748;19.142;2023-05-07T10:51:33;22.60;57.70
9329;DHT22;4703;48.748;19.142;2023-05-07T10:56:43;23.10;55.80
9329;DHT22;4703;48.748;19.142;2023-05-07T11:01:58;23.50;53.00
9329;DHT22;4703;48.748;19.142;2023-05-07T11:04:29;23.70;52.50
9329;DHT22;4703;48.748;19.142;2023-05-07T11:07:24;23.80;53.40
9329;DHT22;4703;48.748;19.142;2023-05-07T11:15:09;24.20;51.30
9329;DHT22;4703;48.748;19.142;2023-05-07T11:17:54;24.50;52.80
9329;DHT22;4703;48.748;19.142;2023-05-07T11:26:01;25.50;47.80
9329;DHT22;4703;48.748;19.142;2023-05-07T11:28:31;25.60;46.10
9329;DHT22;4703;48.748;19.142;2023-05-07T11:31:04;25.70;46.00
9329;DHT22;4703;48.748;19.142;2023-05-07T11:33:31;25.70;45.90
9329;DHT22;4703;48.748;19.142;2023-05-07T11:36:00;25.90;43.70
9329;DHT22;4703;48.748;19.142;2023-05-07T11:38:28;25.90;45.60
9329;DHT22;4703;48.748;19.142;2023-05-07T11:40:57;26.00;44.30
9329;DHT22;4703;48.748;19.142;2023-05-07T11:43:27;26.20;44.50
9329;DHT22;4703;48.748;19.142;2023-05-07T11:45:54;26.40;42.80
9329;DHT22;4703;48.748;19.142;2023-05-07T11:48:22;26.60;43.70
9329;DHT22;4703;48.748;19.142;2023-05-07T11:50:54;26.50;41.60
9329;DHT22;4703;48.748;19.142;2023-05-07T11:53:34;26.80;41.80
9329;DHT22;4703;48.748;19.142;2023-05-07T11:56:09;27.10;42.10
9329;DHT22;4703;48.748;19.142;2023-05-07T11:58:39;27.40;42.00
9329;DHT22;4703;48.748;19.142;2023-05-07T12:01:11;27.70;43.70
9329;DHT22;4703;48.748;19.142;2023-05-07T12:03:43;27.90;38.40
9329;DHT22;4703;48.748;19.142;2023-05-07T12:06:16;28.00;39.80
9329;DHT22;4703;48.748;19.142;2023-05-07T12:08:45;28.10;40.10
9329;DHT22;4703;48.748;19.142;2023-05-07T12:11:23;28.20;38.30
9329;DHT22;4703;48.748;19.142;2023-05-07T12:13:53;28.30;35.50
9329;DHT22;4703;48.748;19.142;2023-05-07T12:16:25;28.10;36.70
9329;DHT22;4703;48.748;19.142;2023-05-07T12:18:53;28.30;36.60
9329;DHT22;4703;48.748;19.142;2023-05-07T12:21:22;28.20;33.20
9329;DHT22;4703;48.748;19.142;2023-05-07T12:23:49;28.10;35.70
9329;DHT22;4703;48.748;19.142;2023-05-07T12:26:18;27.70;34.80
9329;DHT22;4703;48.748;19.142;2023-05-07T12:28:46;27.60;36.40
9329;DHT22;4703;48.748;19.142;2023-05-07T12:31:14;27.30;34.60
9329;DHT22;4703;48.748;19.142;2023-05-07T12:33:42;27.00;34.50
9329;DHT22;4703;48.748;19.142;2023-05-07T12:36:12;26.80;36.10
9329;DHT22;4703;48.748;19.142;2023-05-07T12:38:40;26.80;36.50
9329;DHT22;4703;48.748;19.142;2023-05-07T12:41:09;26.90;38.70
9329;DHT22;4703;48.748;19.142;2023-05-07T12:43:38;27.10;37.20
9329;DHT22;4703;48.748;19.142;2023-05-07T12:46:07;27.10;36.00
9329;DHT22;4703;48.748;19.142;2023-05-07T12:48:43;26.90;36.10
9329;DHT22;4703;48.748;19.142;2023-05-07T12:51:12;26.70;36.10
9329;DHT22;4703;48.748;19.142;2023-05-07T12:53:42;26.60;36.10
9329;DHT22;4703;48.748;19.142;2023-05-07T12:56:09;26.50;36.10
9329;DHT22;4703;48.748;19.142;2023-05-07T12:58:36;25.80;35.70
9329;DHT22;4703;48.748;19.142;2023-05-07T13:01:07;25.20;36.80
9329;DHT22;4703;48.748;19.142;2023-05-07T13:03:37;24.90;38.00
9329;DHT22;4703;48.748;19.142;2023-05-07T13:06:07;24.80;40.10
9329;DHT22;4703;48.748;19.142;2023-05-07T13:08:38;24.80;39.50
9329;DHT22;4703;48.748;19.142;2023-05-07T13:11:10;24.70;38.80
9329;DHT22;4703;48.748;19.142;2023-05-07T13:13:38;24.50;38.50
9329;DHT22;4703;48.748;19.142;2023-05-07T13:16:08;24.50;39.50
9329;DHT22;4703;48.748;19.142;2023-05-07T13:18:38;24.40;38.40
9329;DHT22;4703;48.748;19.142;2023-05-07T13:21:07;24.40;39.30
9329;DHT22;4703;48.748;19.142;2023-05-07T13:23:34;24.30;37.00
9329;DHT22;4703;48.748;19.142;2023-05-07T13:26:01;24.10;37.00
9329;DHT22;4703;48.748;19.142;2023-05-07T13:28:40;23.90;36.10
9329;DHT22;4703;48.748;19.142;2023-05-07T13:31:08;23.90;36.10
9329;DHT22;4703;48.748;19.142;2023-05-07T13:33:35;23.80;36.00
9329;DHT22;4703;48.748;19.142;2023-05-07T13:36:02;24.00;38.40
9329;DHT22;4703;48.748;19.142;2023-05-07T13:38:32;24.40;39.10
9329;DHT22;4703;48.748;19.142;2023-05-07T13:40:59;24.70;37.20
9329;DHT22;4703;48.748;19.142;2023-05-07T13:43:25;25.10;36.20
9329;DHT22;4703;48.748;19.142;2023-05-07T13:45:52;25.30;35.30
9329;DHT22;4703;48.748;19.142;2023-05-07T13:48:19;25.50;35.40
9329;DHT22;4703;48.748;19.142;2023-05-07T13:50:46;25.70;35.60
9329;DHT22;4703;48.748;19.142;2023-05-07T13:53:13;26.00;36.10
9329;DHT22;4703;48.748;19.142;2023-05-07T13:55:44;26.50;36.90
9329;DHT22;4703;48.748;19.142;2023-05-07T13:58:11;27.00;37.80
9329;DHT22;4703;48.748;19.142;2023-05-07T14:00:38;27.50;35.50
9329;DHT22;4703;48.748;19.142;2023-05-07T14:03:05;27.90;36.30
9329;DHT22;4703;48.748;19.142;2023-05-07T14:05:32;28.20;36.20
9329;DHT22;4703;48.748;19.142;2023-05-07T14:07:59;28.40;35.50
9329;DHT22;4703;48.748;19.142;2023-05-07T14:10:26;28.50;35.90
9329;DHT22;4703;48.748;19.142;2023-05-07T14:12:53;28.20;35.40
9329;DHT22;4703;48.748;19.142;2023-05-07T14:15:21;28.10;35.60
9329;DHT22;4703;48.748;19.142;2023-05-07T14:17:48;28.20;38.00
9329;DHT22;4703;48.748;19.142;2023-05-07T14:20:15;28.30;36.90
9329;DHT22;4703;48.748;19.142;2023-05-07T14:22:42;28.60;37.30
9329;DHT22;4703;48.748;19.142;2023-05-07T14:25:09;28.70;37.50
9329;DHT22;4703;48.748;19.142;2023-05-07T14:27:36;28.90;36.90
9329;DHT22;4703;48.748;19.142;2023-05-07T14:30:04;28.70;35.90
9329;DHT22;4703;48.748;19.142;2023-05-07T14:32:32;28.40;36.50
9329;DHT22;4703;48.748;19.142;2023-05-07T14:35:00;28.30;36.40
9329;DHT22;4703;48.748;19.142;2023-05-07T14:37:27;28.40;36.60
9329;DHT22;4703;48.748;19.142;2023-05-07T14:39:54;28.40;37.00
9329;DHT22;4703;48.748;19.142;2023-05-07T14:42:21;28.50;37.00
9329;DHT22;4703;48.748;19.142;2023-05-07T14:44:48;28.80;37.00
9329;DHT22;4703;48.748;19.142;2023-05-07T14:47:15;29.00;36.50
9329;DHT22;4703;48.748;19.142;2023-05-07T14:49:45;29.40;36.20
9329;DHT22;4703;48.748;19.142;2023-05-07T14:52:12;29.80;36.20
9329;DHT22;4703;48.748;19.142;2023-05-07T14:54:39;30.10;35.20
9329;DHT22;4703;48.748;19.142;2023-05-07T14:57:07;30.10;34.80
9329;DHT22;4703;48.748;19.142;2023-05-07T14:59:37;29.90;34.40
9329;DHT22;4703;48.748;19.142;2023-05-07T15:02:06;29.90;35.50
9329;DHT22;4703;48.748;19.142;2023-05-07T15:04:34;29.80;35.40
9329;DHT22;4703;48.748;19.142;2023-05-07T15:07:01;30.00;35.60
9329;DHT22;4703;48.748;19.142;2023-05-07T15:09:29;30.30;36.60
9329;DHT22;4703;48.748;19.142;2023-05-07T15:11:56;30.60;35.60
9329;DHT22;4703;48.748;19.142;2023-05-07T15:14:23;30.80;36.10
9329;DHT22;4703;48.748;19.142;2023-05-07T15:16:50;31.10;34.70
9329;DHT22;4703;48.748;19.142;2023-05-07T15:19:17;31.20;35.00
9329;DHT22;4703;48.748;19.142;2023-05-07T15:21:44;31.40;35.30
9329;DHT22;4703;48.748;19.142;2023-05-07T15:24:11;31.40;35.50
9329;DHT22;4703;48.748;19.142;2023-05-07T15:26:38;31.70;34.20
9329;DHT22;4703;48.748;19.142;2023-05-07T15:29:05;31.90;35.00
9329;DHT22;4703;48.748;19.142;2023-05-07T15:31:37;32.00;35.40
9329;DHT22;4703;48.748;19.142;2023-05-07T15:34:05;31.90;34.20
9329;DHT22;4703;48.748;19.142;2023-05-07T15:36:32;32.00;34.20
9329;DHT22;4703;48.748;19.142;2023-05-07T15:38:59;32.20;34.50
9329;DHT22;4703;48.748;19.142;2023-05-07T15:41:28;32.40;35.20
9329;DHT22;4703;48.748;19.142;2023-05-07T15:43:55;32.40;34.10
9329;DHT22;4703;48.748;19.142;2023-05-07T15:46:23;32.50;35.70
9329;DHT22;4703;48.748;19.142;2023-05-07T15:48:52;32.60;34.40
9329;DHT22;4703;48.748;19.142;2023-05-07T15:51:19;32.70;33.50
9329;DHT22;4703;48.748;19.142;2023-05-07T15:53:48;32.70;34.30
9329;DHT22;4703;48.748;19.142;2023-05-07T15:56:15;32.70;33.70
9329;DHT22;4703;48.748;19.142;2023-05-07T15:58:42;32.70;33.80
9329;DHT22;4703;48.748;19.142;2023-05-07T16:01:09;32.70;33.80
9329;DHT22;4703;48.748;19.142;2023-05-07T16:03:36;32.70;33.50
9329;DHT22;4703;48.748;19.142;2023-05-07T16:06:04;32.60;33.30
9329;DHT22;4703;48.748;19.142;2023-05-07T16:08:32;32.50;33.60
9329;DHT22;4703;48.748;19.142;2023-05-07T16:10:59;32.40;33.10
9329;DHT22;4703;48.748;19.142;2023-05-07T16:13:26;32.20;33.00